createdAt,value
2023-02-05T00:01:37.185Z,0.57
2023-02-05T00:04:06.102Z,0.94
2023-02-05T00:06:33.579Z,1.14
2023-02-05T00:09:01.067Z,1.01
2023-02-05T00:11:28.499Z,1.87
2023-02-05T00:13:56.118Z,2.07
2023-02-05T00:16:25.978Z,1.76
2023-02-05T00:18:54.252Z,2.43
2023-02-05T00:21:24.368Z,2.20
2023-02-05T00:23:52.283Z,2.28
2023-02-05T00:26:19.999Z,2.09
2023-02-05T00:28:47.965Z,1.65
2023-02-05T00:31:17.588Z,1.67
2023-02-05T00:33:45.232Z,2.02
2023-02-05T00:36:13.614Z,2.53
2023-02-05T00:38:42.670Z,2.76
2023-02-05T00:41:10.998Z,2.43
2023-02-05T00:43:38.803Z,2.85
2023-02-05T00:46:06.816Z,2.47
2023-02-05T00:48:34.652Z,2.43
2023-02-05T00:51:02.146Z,2.91
2023-02-05T00:53:30.039Z,2.96
2023-02-05T00:55:58.802Z,2.99
2023-02-05T00:58:26.284Z,2.98
2023-02-05T01:00:53.811Z,3.10
2023-02-05T01:03:21.657Z,3.03
2023-02-05T01:05:49.438Z,2.69
2023-02-05T01:08:17.236Z,2.78
2023-02-05T01:10:45.970Z,2.81
2023-02-05T01:13:17.793Z,2.68
2023-02-05T01:15:46.025Z,2.66
2023-02-05T01:18:13.959Z,2.37
2023-02-05T01:20:42.914Z,2.53
2023-02-05T01:23:11.527Z,2.53
2023-02-05T01:25:39.103Z,2.54
2023-02-05T01:28:06.703Z,2.43
2023-02-05T01:30:35.726Z,2.04
2023-02-05T01:33:03.513Z,2.34
2023-02-05T01:35:31.813Z,2.32
2023-02-05T01:37:59.581Z,2.25
2023-02-05T01:40:27.141Z,2.01
2023-02-05T01:42:54.589Z,2.11
2023-02-05T01:45:50.921Z,2.13
2023-02-05T01:48:23.339Z,2.20
2023-02-05T01:50:54.525Z,1.82
2023-02-05T01:53:25.400Z,1.98
2023-02-05T01:55:58.299Z,2.01
2023-02-05T01:58:28.536Z,1.74
2023-02-05T02:00:57.818Z,1.59
2023-02-05T02:03:27.914Z,1.53
2023-02-05T02:05:55.404Z,1.70
2023-02-05T02:08:23.313Z,1.85
2023-02-05T02:10:52.594Z,1.82
2023-02-05T02:13:23.045Z,1.72
2023-02-05T02:15:51.321Z,1.36
2023-02-05T02:18:27.201Z,1.51
2023-02-05T02:21:09.074Z,1.41
2023-02-05T02:23:46.390Z,1.33
2023-02-05T02:26:40.663Z,1.52
2023-02-05T02:29:18.178Z,1.60
2023-02-05T02:31:54.850Z,1.62
2023-02-05T02:34:27.697Z,1.71
2023-02-05T02:37:00.638Z,1.49
2023-02-05T02:39:33.327Z,1.52
2023-02-05T02:42:04.969Z,1.49
2023-02-05T02:44:36.855Z,1.44
2023-02-05T02:47:10.711Z,1.39
2023-02-05T02:49:42.998Z,1.08
2023-02-05T02:52:13.395Z,1.26
2023-02-05T02:54:44.775Z,1.52
2023-02-05T02:57:16.185Z,1.49
2023-02-05T02:59:48.467Z,1.40
2023-02-05T03:02:17.330Z,1.22
2023-02-05T03:04:49.759Z,0.77
2023-02-05T03:07:21.520Z,1.36
2023-02-05T03:09:53.517Z,1.29
2023-02-05T03:12:21.816Z,1.29
2023-02-05T03:14:51.398Z,1.18
2023-02-05T03:17:19.848Z,1.49
2023-02-05T03:19:49.465Z,1.37
2023-02-05T03:22:16.906Z,1.62
2023-02-05T03:24:44.865Z,1.71
2023-02-05T03:27:12.388Z,1.69
2023-02-05T03:29:44.789Z,1.72
2023-02-05T03:32:29.849Z,1.68
2023-02-05T03:35:09.840Z,1.70
2023-02-05T03:37:45.389Z,1.61
2023-02-05T03:40:19.897Z,1.05
2023-02-05T03:42:56.031Z,1.47
2023-02-05T03:45:34.199Z,1.47
2023-02-05T03:48:23.371Z,1.52
2023-02-05T03:50:55.218Z,1.53
2023-02-05T03:53:27.309Z,1.54
2023-02-05T03:56:02.807Z,1.45
2023-02-05T03:58:35.837Z,1.55
2023-02-05T04:01:03.429Z,1.61
2023-02-05T04:03:32.302Z,1.65
2023-02-05T04:05:59.914Z,1.43
2023-02-05T04:08:27.526Z,1.52
2023-02-05T04:10:54.923Z,1.46
2023-02-05T04:13:22.418Z,1.04
2023-02-05T04:15:49.952Z,1.18
2023-02-05T04:18:17.521Z,1.05
2023-02-05T04:20:46.282Z,1.26
2023-02-05T04:23:13.966Z,1.21
2023-02-05T04:25:41.537Z,1.12
2023-02-05T04:28:10.849Z,1.15
2023-02-05T04:30:40.062Z,1.31
2023-02-05T04:33:07.541Z,1.09
2023-02-05T04:35:35.250Z,0.96
2023-02-05T04:38:04.473Z,1.03
2023-02-05T04:40:32.130Z,1.61
2023-02-05T04:42:59.527Z,1.72
2023-02-05T04:45:30.951Z,1.98
2023-02-05T04:47:59.547Z,2.02
2023-02-05T04:50:27.830Z,2.04
2023-02-05T04:52:55.283Z,2.25
2023-02-05T04:55:24.912Z,2.21
2023-02-05T04:57:52.829Z,1.82
2023-02-05T05:00:21.018Z,2.04
2023-02-05T05:02:50.405Z,2.03
2023-02-05T05:05:18.107Z,2.02
2023-02-05T05:07:46.188Z,2.02
2023-02-05T05:10:13.797Z,1.73
2023-02-05T05:12:42.599Z,1.52
2023-02-05T05:15:10.454Z,1.85
2023-02-05T05:17:37.876Z,1.90
2023-02-05T05:20:05.904Z,1.87
2023-02-05T05:22:33.441Z,0.92
2023-02-05T05:25:00.907Z,1.75
2023-02-05T05:27:28.324Z,2.10
2023-02-05T05:29:57.045Z,2.33
2023-02-05T05:32:24.621Z,1.91
2023-02-05T05:34:52.730Z,2.19
2023-02-05T05:37:20.132Z,1.85
2023-02-05T05:40:05.205Z,1.96
2023-02-05T05:42:50.150Z,1.97
2023-02-05T05:45:19.238Z,1.96
2023-02-05T05:47:46.661Z,2.08
2023-02-05T05:50:14.152Z,2.00
2023-02-05T05:52:41.562Z,1.93
2023-02-05T05:55:09.338Z,1.88
2023-02-05T05:57:36.769Z,2.02
2023-02-05T06:00:05.848Z,2.10
2023-02-05T06:02:34.754Z,2.01
2023-02-05T06:05:02.249Z,2.06
2023-02-05T06:07:29.696Z,2.20
2023-02-05T06:09:57.148Z,2.01
2023-02-05T06:12:24.562Z,1.90
2023-02-05T06:14:51.951Z,1.97
2023-02-05T06:17:19.354Z,1.27
2023-02-05T06:19:48.064Z,1.97
2023-02-05T06:22:15.497Z,1.80
2023-02-05T06:24:42.912Z,2.02
2023-02-05T06:27:10.381Z,2.05
2023-02-05T06:29:37.803Z,2.20
2023-02-05T06:32:05.622Z,2.10
2023-02-05T06:34:33.053Z,2.01
2023-02-05T06:37:01.862Z,2.14
2023-02-05T06:39:29.302Z,2.43
2023-02-05T06:41:56.805Z,2.18
2023-02-05T06:44:24.926Z,2.26
2023-02-05T06:46:52.418Z,2.58
2023-02-05T06:49:19.873Z,2.34
2023-02-05T06:51:47.319Z,2.39
2023-02-05T06:54:16.034Z,2.24
2023-02-05T06:56:43.483Z,2.42
2023-02-05T06:59:10.907Z,2.51
2023-02-05T07:01:38.376Z,2.58
2023-02-05T07:04:06.133Z,2.68
2023-02-05T07:06:33.710Z,2.49
2023-02-05T07:09:01.129Z,2.41
2023-02-05T07:11:29.935Z,2.35
2023-02-05T07:13:57.342Z,2.13
2023-02-05T07:16:24.794Z,2.39
2023-02-05T07:18:52.983Z,2.46
2023-02-05T07:21:20.411Z,2.64
2023-02-05T07:23:48.026Z,2.76
2023-02-05T07:26:17.924Z,1.92
2023-02-05T07:28:46.661Z,2.56
2023-02-05T07:31:16.902Z,2.45
2023-02-05T07:33:45.280Z,2.74
2023-02-05T07:36:16.244Z,2.43
2023-02-05T07:38:45.078Z,2.86
2023-02-05T07:41:14.201Z,2.78
2023-02-05T07:43:42.143Z,2.35
2023-02-05T07:46:13.737Z,1.87
2023-02-05T07:48:41.493Z,2.63
2023-02-05T07:51:09.046Z,2.45
2023-02-05T07:53:36.559Z,1.63
2023-02-05T07:56:04.952Z,2.61
2023-02-05T07:58:32.492Z,2.84
2023-02-05T08:01:02.319Z,2.92
2023-02-05T08:03:31.818Z,1.04
2023-02-05T08:05:59.637Z,1.48
2023-02-05T08:08:27.099Z,2.29
2023-02-05T08:10:58.423Z,2.99
2023-02-05T08:13:25.887Z,3.01
2023-02-05T08:15:53.330Z,2.98
2023-02-05T08:18:20.786Z,3.09
2023-02-05T08:20:53.129Z,3.17
2023-02-05T08:23:20.735Z,1.12
2023-02-05T08:25:48.816Z,1.84
2023-02-05T08:28:16.304Z,2.63
2023-02-05T08:30:43.760Z,3.18
2023-02-05T08:33:11.179Z,1.52
2023-02-05T08:35:38.590Z,2.54
2023-02-05T08:38:07.471Z,2.98
2023-02-05T08:40:34.891Z,3.02
2023-02-05T08:43:02.712Z,3.55
2023-02-05T08:45:30.917Z,2.74
2023-02-05T08:47:58.528Z,1.86
2023-02-05T08:50:26.477Z,2.76
2023-02-05T08:52:53.952Z,2.42
2023-02-05T08:55:22.766Z,3.09
2023-02-05T08:57:50.204Z,2.97
2023-02-05T09:00:18.287Z,3.32
2023-02-05T09:02:45.700Z,3.72
2023-02-05T09:05:13.380Z,3.95
2023-02-05T09:07:41.519Z,3.88
2023-02-05T09:10:09.875Z,3.73
2023-02-05T09:12:38.988Z,3.83
2023-02-05T09:15:06.988Z,3.46
2023-02-05T09:17:34.438Z,3.62
2023-02-05T09:20:02.101Z,5.16
2023-02-05T09:22:29.712Z,3.53
2023-02-05T09:24:57.418Z,4.73
2023-02-05T09:27:24.900Z,4.62
2023-02-05T09:29:53.710Z,4.19
2023-02-05T09:32:21.295Z,4.24
2023-02-05T09:34:49.555Z,3.66
2023-02-05T09:37:17.511Z,4.59
2023-02-05T09:40:18.933Z,3.68
2023-02-05T09:42:39.871Z,2.01
2023-02-05T09:45:21.614Z,4.00
2023-02-05T09:48:02.334Z,3.46
2023-02-05T09:50:31.118Z,3.38
2023-02-05T09:53:02.550Z,3.76
2023-02-05T09:55:32.403Z,1.97
2023-02-05T09:58:03.814Z,2.53
2023-02-05T10:00:38.004Z,3.67
2023-02-05T10:03:14.964Z,3.38
2023-02-05T10:06:04.808Z,4.32
2023-02-05T10:08:41.996Z,3.37
2023-02-05T10:11:18.231Z,3.47
2023-02-05T10:13:47.589Z,2.94
2023-02-05T10:16:38.505Z,2.16
2023-02-05T10:19:25.654Z,3.81
2023-02-05T10:22:13.314Z,3.75
2023-02-05T10:25:06.305Z,3.02
2023-02-05T10:27:40.169Z,3.78
2023-02-05T10:30:17.972Z,4.45
2023-02-05T10:32:57.274Z,4.69
2023-02-05T10:35:27.447Z,5.01
2023-02-05T10:37:57.775Z,5.16
2023-02-05T10:40:28.359Z,5.02
2023-02-05T10:43:04.665Z,4.19
2023-02-05T10:45:33.112Z,4.41
2023-02-05T10:48:25.610Z,4.58
2023-02-05T10:50:59.308Z,4.69
2023-02-05T10:53:28.749Z,4.18
2023-02-05T10:55:58.237Z,4.75
2023-02-05T10:58:36.832Z,4.59
2023-02-05T11:01:06.473Z,4.80
2023-02-05T11:03:36.531Z,3.84
2023-02-05T11:06:08.133Z,3.31
2023-02-05T11:08:38.792Z,4.69
2023-02-05T11:11:07.749Z,3.94
2023-02-05T11:13:41.278Z,4.79
2023-02-05T11:16:10.929Z,5.31
2023-02-05T11:18:42.213Z,5.48
2023-02-05T11:21:10.549Z,5.26
2023-02-05T11:23:40.489Z,5.52
2023-02-05T11:26:11.499Z,5.00
2023-02-05T11:28:40.638Z,5.43
2023-02-05T11:31:21.632Z,5.30
2023-02-05T11:33:50.751Z,4.66
2023-02-05T11:36:22.052Z,3.06
2023-02-05T11:38:52.473Z,4.01
2023-02-05T11:41:29.743Z,4.47
2023-02-05T11:43:59.686Z,5.45
2023-02-05T11:46:29.302Z,5.12
2023-02-05T11:49:00.668Z,5.59
2023-02-05T11:51:39.604Z,5.71
2023-02-05T11:54:18.011Z,5.79
2023-02-05T11:57:01.576Z,4.76
2023-02-05T11:59:29.171Z,5.28
2023-02-05T12:02:15.175Z,5.38
2023-02-05T12:04:49.121Z,5.72
2023-02-05T12:07:20.181Z,5.85
2023-02-05T12:09:48.407Z,5.52
2023-02-05T12:12:24.092Z,4.99
2023-02-05T12:15:02.091Z,4.95
2023-02-05T12:17:36.966Z,5.67
2023-02-05T12:20:18.663Z,5.77
2023-02-05T12:23:10.186Z,5.79
2023-02-05T12:25:48.931Z,6.10
2023-02-05T12:28:31.203Z,5.67
2023-02-05T12:31:09.124Z,4.93
2023-02-05T12:33:51.471Z,5.30
2023-02-05T12:36:35.069Z,5.18
2023-02-05T12:39:15.735Z,4.91
2023-02-05T12:41:53.557Z,4.26
2023-02-05T12:44:34.858Z,5.69
2023-02-05T12:47:17.249Z,4.38
2023-02-05T12:50:01.388Z,4.66
2023-02-05T12:52:55.860Z,5.48
2023-02-05T12:55:37.658Z,5.23
2023-02-05T12:58:08.600Z,5.18
2023-02-05T13:00:41.748Z,5.09
2023-02-05T13:03:19.861Z,5.77
2023-02-05T13:05:51.835Z,5.79
2023-02-05T13:08:30.142Z,5.68
2023-02-05T13:11:02.918Z,5.69
2023-02-05T13:13:35.771Z,6.12
2023-02-05T13:16:08.146Z,5.88
2023-02-05T13:18:40.437Z,6.12
2023-02-05T13:21:30.469Z,6.11
2023-02-05T13:24:23.629Z,6.07
2023-02-05T13:27:09.062Z,6.02
2023-02-05T13:29:52.361Z,6.19
2023-02-05T13:32:25.294Z,6.04
2023-02-05T13:34:55.514Z,5.97
2023-02-05T13:37:51.402Z,5.82
2023-02-05T13:40:53.078Z,4.80
2023-02-05T13:43:39.184Z,5.08
2023-02-05T13:46:34.584Z,4.06
2023-02-05T13:49:39.659Z,2.83
2023-02-05T13:52:30.519Z,4.25
2023-02-05T13:55:29.996Z,4.85
2023-02-05T13:58:19.372Z,4.26
2023-02-05T14:00:54.669Z,5.44
2023-02-05T14:03:30.622Z,5.63
2023-02-05T14:05:58.665Z,5.71
2023-02-05T14:08:31.373Z,5.62
2023-02-05T14:11:02.936Z,5.76
2023-02-05T14:13:34.318Z,5.72
2023-02-05T14:16:36.249Z,5.65
2023-02-05T14:19:17.408Z,4.44
2023-02-05T14:22:13.739Z,4.90
2023-02-05T14:24:49.624Z,4.26
2023-02-05T14:27:55.363Z,5.18
2023-02-05T14:30:46.584Z,4.83
2023-02-05T14:33:30.035Z,5.06
2023-02-05T14:35:59.117Z,5.42
2023-02-05T14:38:32.125Z,5.49
2023-02-05T14:41:08.960Z,4.91
2023-02-05T14:43:38.425Z,4.28
2023-02-05T14:46:20.803Z,4.78
2023-02-05T14:48:49.374Z,4.56
2023-02-05T14:51:25.872Z,5.14
2023-02-05T14:53:57.380Z,3.86
2023-02-05T14:56:31.624Z,4.05
2023-02-05T14:59:05.119Z,3.69
2023-02-05T15:01:45.762Z,4.47
2023-02-05T15:04:26.272Z,4.91
2023-02-05T15:06:55.357Z,4.35
2023-02-05T15:09:38.290Z,4.17
2023-02-05T15:12:31.619Z,4.73
2023-02-05T15:14:59.942Z,4.86
2023-02-05T15:17:51.578Z,4.53
2023-02-05T15:20:32.605Z,4.71
2023-02-05T15:23:06.513Z,4.86
2023-02-05T15:25:38.465Z,4.45
2023-02-05T15:28:10.684Z,4.61
2023-02-05T15:30:49.098Z,4.43
2023-02-05T15:33:26.213Z,3.76
2023-02-05T15:35:54.724Z,4.50
2023-02-05T15:38:30.100Z,4.17
2023-02-05T15:40:58.941Z,4.59
2023-02-05T15:43:28.026Z,4.20
2023-02-05T15:46:01.398Z,4.49
2023-02-05T15:48:32.325Z,4.60
2023-02-05T15:51:03.213Z,3.94
2023-02-05T15:53:33.914Z,3.53
2023-02-05T15:56:05.602Z,4.04
2023-02-05T15:58:33.010Z,4.22
2023-02-05T16:01:00.571Z,4.43
2023-02-05T16:03:33.566Z,4.44
2023-02-05T16:06:01.877Z,4.20
2023-02-05T16:08:29.589Z,3.99
2023-02-05T16:11:01.930Z,4.16
2023-02-05T16:13:30.092Z,4.40
2023-02-05T16:16:03.136Z,4.34
2023-02-05T16:18:38.387Z,4.13
2023-02-05T16:21:14.135Z,4.11
2023-02-05T16:23:45.336Z,3.68
2023-02-05T16:26:21.139Z,3.72
2023-02-05T16:28:52.568Z,3.92
2023-02-05T16:31:22.662Z,3.46
2023-02-05T16:33:55.650Z,4.09
2023-02-05T16:36:25.471Z,4.14
2023-02-05T16:38:54.910Z,3.94
2023-02-05T16:41:26.691Z,3.62
2023-02-05T16:43:56.651Z,4.16
2023-02-05T16:46:29.534Z,4.13
2023-02-05T16:49:00.560Z,4.10
2023-02-05T16:51:35.434Z,4.04
2023-02-05T16:54:22.232Z,4.00
2023-02-05T16:56:55.552Z,4.18
2023-02-05T16:59:25.268Z,4.08
2023-02-05T17:01:53.870Z,3.92
2023-02-05T17:04:27.563Z,3.98
2023-02-05T17:06:57.605Z,4.04
2023-02-05T17:09:34.561Z,4.09
2023-02-05T17:12:40.832Z,4.03
2023-02-05T17:15:31.839Z,3.84
2023-02-05T17:18:04.570Z,3.97
2023-02-05T17:20:35.003Z,3.94
2023-02-05T17:23:11.280Z,3.76
2023-02-05T17:25:41.747Z,3.94
2023-02-05T17:28:15.484Z,3.89
2023-02-05T17:30:44.856Z,3.94
2023-02-05T17:33:17.339Z,3.84
2023-02-05T17:35:46.321Z,3.84
2023-02-05T17:38:13.760Z,3.72
2023-02-05T17:40:41.805Z,3.69
2023-02-05T17:43:09.444Z,3.73
2023-02-05T17:45:39.493Z,3.85
2023-02-05T17:48:07.805Z,3.73
2023-02-05T17:50:36.554Z,3.72
2023-02-05T17:53:05.600Z,3.69
2023-02-05T17:55:33.241Z,3.71
2023-02-05T17:58:00.806Z,3.50
2023-02-05T18:00:31.802Z,3.62
2023-02-05T18:02:59.508Z,3.49
2023-02-05T18:05:27.055Z,3.42
2023-02-05T18:07:57.459Z,3.46
2023-02-05T18:10:29.284Z,3.53
2023-02-05T18:12:57.293Z,3.60
2023-02-05T18:15:25.670Z,3.45
2023-02-05T18:17:53.514Z,3.65
2023-02-05T18:20:21.785Z,3.63
2023-02-05T18:22:49.998Z,1.74
2023-02-05T18:25:17.845Z,1.65
2023-02-05T18:27:48.130Z,2.18
2023-02-05T18:30:15.809Z,1.08
2023-02-05T18:32:43.667Z,1.54
2023-02-05T18:35:14.388Z,1.71
2023-02-05T18:37:42.426Z,3.33
2023-02-05T18:40:10.691Z,3.41
2023-02-05T18:42:38.114Z,3.61
2023-02-05T18:45:07.733Z,3.56
2023-02-05T18:47:35.210Z,3.34
2023-02-05T18:50:02.637Z,3.34
2023-02-05T18:52:31.109Z,3.37
2023-02-05T18:54:58.570Z,3.41
2023-02-05T18:57:26.038Z,3.40
2023-02-05T18:59:53.910Z,3.35
2023-02-05T19:02:22.633Z,3.16
2023-02-05T19:04:55.888Z,3.15
2023-02-05T19:07:24.792Z,3.07
2023-02-05T19:09:52.292Z,3.34
2023-02-05T19:12:19.842Z,3.33
2023-02-05T19:14:47.279Z,3.28
2023-02-05T19:17:14.698Z,3.07
2023-02-05T19:19:43.751Z,2.98
2023-02-05T19:22:11.200Z,2.97
2023-02-05T19:24:40.388Z,3.18
2023-02-05T19:27:07.863Z,2.83
2023-02-05T19:29:39.626Z,2.96
2023-02-05T19:32:07.659Z,2.89
2023-02-05T19:34:35.446Z,3.12
2023-02-05T19:37:04.174Z,2.97
2023-02-05T19:39:31.619Z,3.00
2023-02-05T19:41:59.061Z,2.88
2023-02-05T19:44:27.752Z,2.75
2023-02-05T19:46:55.149Z,2.75
2023-02-05T19:49:23.087Z,2.63
2023-02-05T19:51:52.289Z,2.63
2023-02-05T19:54:21.772Z,2.78
2023-02-05T19:56:49.708Z,2.64
2023-02-05T19:59:17.191Z,2.82
2023-02-05T20:01:45.660Z,2.75
2023-02-05T20:04:17.162Z,2.96
2023-02-05T20:06:46.161Z,2.96
2023-02-05T20:09:14.630Z,2.79
2023-02-05T20:11:45.497Z,2.69
2023-02-05T20:14:13.456Z,2.75
2023-02-05T20:16:41.261Z,2.68
2023-02-05T20:19:11.408Z,2.77
2023-02-05T20:21:39.278Z,2.95
2023-02-05T20:24:08.196Z,2.78
2023-02-05T20:26:36.255Z,2.81
2023-02-05T20:29:22.721Z,3.05
2023-02-05T20:31:52.336Z,2.72
2023-02-05T20:34:22.595Z,2.85
2023-02-05T20:36:51.938Z,2.71
2023-02-05T20:39:20.509Z,2.80
2023-02-05T20:41:50.427Z,2.81
2023-02-05T20:44:20.037Z,2.58
2023-02-05T20:46:47.846Z,2.68
2023-02-05T20:49:16.120Z,2.82
2023-02-05T20:51:44.530Z,2.93
2023-02-05T20:54:12.422Z,3.05
2023-02-05T20:56:40.036Z,2.71
2023-02-05T20:59:09.248Z,2.84
2023-02-05T21:01:39.960Z,3.05
2023-02-05T21:04:09.232Z,2.90
2023-02-05T21:06:38.330Z,2.91
2023-02-05T21:09:06.864Z,2.67
2023-02-05T21:11:34.657Z,2.81
2023-02-05T21:14:03.349Z,2.79
2023-02-05T21:16:30.855Z,2.60
2023-02-05T21:19:02.182Z,2.61
2023-02-05T21:21:32.204Z,2.63
2023-02-05T21:24:01.302Z,2.71
2023-02-05T21:26:31.028Z,2.49
2023-02-05T21:29:00.563Z,2.65
2023-02-05T21:31:33.670Z,2.53
2023-02-05T21:34:02.855Z,2.60
2023-02-05T21:36:30.930Z,2.11
2023-02-05T21:38:58.678Z,2.45
2023-02-05T21:41:26.142Z,1.98
2023-02-05T21:43:55.412Z,1.68
2023-02-05T21:46:25.021Z,2.33
2023-02-05T21:48:54.593Z,3.07
2023-02-05T21:51:25.886Z,3.37
2023-02-05T21:53:55.211Z,3.39
2023-02-05T21:56:23.035Z,3.78
2023-02-05T21:58:50.745Z,4.49
2023-02-05T22:01:20.503Z,4.18
2023-02-05T22:03:50.158Z,3.72
2023-02-05T22:06:17.652Z,2.74
2023-02-05T22:08:48.236Z,3.24
2023-02-05T22:11:16.050Z,4.59
2023-02-05T22:13:45.745Z,4.49
2023-02-05T22:16:15.203Z,1.98
2023-02-05T22:18:42.892Z,2.57
2023-02-05T22:21:12.464Z,4.60
2023-02-05T22:23:40.743Z,3.08
2023-02-05T22:26:10.748Z,3.01
2023-02-05T22:28:39.209Z,3.11
2023-02-05T22:31:09.158Z,2.98
2023-02-05T22:33:39.029Z,2.34
2023-02-05T22:36:08.153Z,2.32
2023-02-05T22:38:38.153Z,2.35
2023-02-05T22:41:10.278Z,2.22
2023-02-05T22:43:38.018Z,2.16
2023-02-05T22:46:06.110Z,1.91
2023-02-05T22:48:36.017Z,2.29
2023-02-05T22:51:04.941Z,1.93
2023-02-05T22:53:32.811Z,2.12
2023-02-05T22:56:02.003Z,2.29
2023-02-05T22:58:31.259Z,2.07
2023-02-05T23:01:07.887Z,1.96
2023-02-05T23:03:35.510Z,2.03
2023-02-05T23:06:08.914Z,2.25
2023-02-05T23:08:36.773Z,2.09
2023-02-05T23:11:05.436Z,1.97
2023-02-05T23:13:34.299Z,2.15
2023-02-05T23:16:07.360Z,2.29
2023-02-05T23:18:34.965Z,2.23
2023-02-05T23:21:02.531Z,2.35
2023-02-05T23:23:29.949Z,2.06
2023-02-05T23:25:57.337Z,2.14
2023-02-05T23:28:24.917Z,2.05
2023-02-05T23:30:53.720Z,2.24
2023-02-05T23:33:21.180Z,2.21
2023-02-05T23:35:48.657Z,2.15
2023-02-05T23:38:16.222Z,2.29
2023-02-05T23:40:43.640Z,2.37
2023-02-05T23:43:11.060Z,2.25
2023-02-05T23:45:38.525Z,2.28
2023-02-05T23:48:07.286Z,2.15
2023-02-05T23:50:34.676Z,2.13
2023-02-05T23:53:02.325Z,2.04
2023-02-05T23:55:31.082Z,2.26
2023-02-05T23:57:58.605Z,2.36
